Time;durP1;ratioP1;P1;durP2;ratioP2;P2;SDS_P1;SDS_P2;PMS_P1;PMS_P2;Temp;Humidity;BMP_temperature;BMP_pressure;BME280_temperature;BME280_humidity;BME280_pressure;Samples;Min_cycle;Max_cycle;Signal;HPM_P1;HPM_P2
2023/01/25 00:01:12;;;;;;;;;;;2.60;99.90;;;;;;5063488;28;19920;-62
2023/01/25 00:03:38;;;;;;;;;;;2.60;99.90;;;;;;5065470;28;19916;-63
2023/01/25 00:06:03;;;;;;;;;;;2.60;99.90;;;;;;5047185;28;19916;-62
2023/01/25 00:08:29;;;;;;;;;;;2.60;99.90;;;;;;5066753;28;19916;-61
2023/01/25 00:10:54;;;;;;;;;;;2.60;99.90;;;;;;5068580;28;19973;-62
2023/01/25 00:13:20;;;;;;;;;;;2.70;99.90;;;;;;5070120;28;19916;-62
2023/01/25 00:15:45;;;;;;;;;;;2.70;99.90;;;;;;5066385;28;19940;-62
2023/01/25 00:18:10;;;;;;;;;;;2.70;99.90;;;;;;5061952;28;19912;-63
2023/01/25 00:20:36;;;;;;;;;;;2.70;99.90;;;;;;5067576;28;19913;-61
2023/01/25 00:23:01;;;;;;;;;;;2.80;99.90;;;;;;5065838;28;20505;-63
2023/01/25 00:25:27;;;;;;;;;;;2.90;99.90;;;;;;5063224;28;19916;-62
2023/01/25 00:27:52;;;;;;;;;;;2.80;99.90;;;;;;5066193;28;19920;-62
2023/01/25 00:30:18;;;;;;;;;;;2.80;99.90;;;;;;5062662;28;19965;-64
2023/01/25 00:32:48;;;;;;;;;;;2.90;99.90;;;;;;5069600;28;20046;-62
2023/01/25 00:35:13;;;;;;;;;;;2.80;99.90;;;;;;5065391;28;20258;-62
2023/01/25 00:37:42;;;;;;;;;;;2.70;99.90;;;;;;5065419;28;19913;-62
2023/01/25 00:40:09;;;;;;;;;;;2.60;99.90;;;;;;5065482;28;19920;-62
2023/01/25 00:42:34;;;;;;;;;;;2.70;99.90;;;;;;5065755;28;20020;-62
2023/01/25 00:45:00;;;;;;;;;;;2.70;99.90;;;;;;5063570;28;19999;-63
2023/01/25 00:47:25;;;;;;;;;;;2.70;99.90;;;;;;5066510;28;19912;-62
2023/01/25 00:49:51;;;;;;;;;;;2.80;99.90;;;;;;5081590;23;19974;-61
2023/01/25 00:52:17;;;;;;;;;;;2.80;99.90;;;;;;5047880;28;19921;-60
2023/01/25 00:54:42;;;;;;;;;;;2.80;99.90;;;;;;5046970;28;19919;-62
2023/01/25 00:57:08;;;;;;;;;;;2.80;99.90;;;;;;5049955;28;20296;-62
2023/01/25 00:59:34;;;;;;;;;;;2.70;99.90;;;;;;5048446;28;19913;-62
2023/01/25 01:02:00;;;;;;;;;;;2.70;99.90;;;;;;5051367;28;19912;-62
2023/01/25 01:04:25;;;;;;;;;;;2.70;99.90;;;;;;5054324;28;19924;-62
2023/01/25 01:06:52;;;;;;;;;;;2.60;99.90;;;;;;5049016;28;19959;-62
2023/01/25 01:09:18;;;;;;;;;;;2.50;99.90;;;;;;5052651;28;20409;-62
2023/01/25 01:11:43;;;;;;;;;;;2.60;99.90;;;;;;5054836;28;19912;-61
2023/01/25 01:14:09;;;;;;;;;;;2.60;99.90;;;;;;5053377;28;19913;-59
2023/01/25 01:16:35;;;;;;;;;;;2.60;99.90;;;;;;5051228;28;20039;-61
2023/01/25 01:19:00;;;;;;;;;;;2.50;99.90;;;;;;5052528;28;20302;-62
2023/01/25 01:21:26;;;;;;;;;;;2.60;99.90;;;;;;5049937;28;19913;-62
2023/01/25 01:23:55;;;;;;;;;;;2.60;99.90;;;;;;5051907;28;20355;-62
2023/01/25 01:26:20;;;;;;;;;;;2.60;99.90;;;;;;5053683;28;20321;-62
2023/01/25 01:28:46;;;;;;;;;;;2.60;99.90;;;;;;5049945;28;19963;-62
2023/01/25 01:31:13;;;;;;;;;;;2.60;99.90;;;;;;5050514;28;19920;-62
2023/01/25 01:33:38;;;;;;;;;;;2.60;99.90;;;;;;5051729;28;19912;-62
2023/01/25 01:36:11;;;;;;;;;;;2.70;99.90;;;;;;5051066;28;20046;-62
2023/01/25 01:38:36;;;;;;;;;;;2.60;99.90;;;;;;5051169;28;20311;-62
2023/01/25 01:41:02;;;;;;;;;;;2.60;99.90;;;;;;5051777;28;19916;-62
2023/01/25 01:43:29;;;;;;;;;;;2.60;99.90;;;;;;5052584;28;20394;-61
2023/01/25 01:45:56;;;;;;;;;;;2.60;99.90;;;;;;5048866;28;20378;-62
2023/01/25 01:48:27;;;;;;;;;;;2.70;99.90;;;;;;5052937;28;20055;-61
2023/01/25 01:50:54;;;;;;;;;;;2.50;99.90;;;;;;5050040;28;19917;-61
2023/01/25 01:53:22;;;;;;;;;;;2.60;99.90;;;;;;5049489;28;19919;-62
2023/01/25 01:55:47;;;;;;;;;;;2.70;99.90;;;;;;5050140;28;19913;-62
2023/01/25 01:58:13;;;;;;;;;;;2.70;99.90;;;;;;5053115;28;19917;-61
2023/01/25 02:00:39;;;;;;;;;;;2.70;99.90;;;;;;5049256;28;20012;-62
2023/01/25 02:03:05;;;;;;;;;;;2.70;99.90;;;;;;5052976;28;19916;-62
2023/01/25 02:05:44;;;;;;;;;;;2.70;99.90;;;;;;5050735;28;19920;-62
2023/01/25 02:08:12;;;;;;;;;;;2.70;99.90;;;;;;5049585;28;19913;-62
2023/01/25 02:10:37;;;;;;;;;;;2.60;99.90;;;;;;5048549;28;20365;-61
2023/01/25 02:13:03;;;;;;;;;;;2.70;99.90;;;;;;5051304;28;19952;-61
2023/01/25 02:15:32;;;;;;;;;;;2.80;99.90;;;;;;5049511;28;19919;-61
2023/01/25 02:17:58;;;;;;;;;;;2.70;99.90;;;;;;5048826;28;19999;-61
2023/01/25 02:20:23;;;;;;;;;;;2.70;99.90;;;;;;5046682;28;20016;-61
2023/01/25 02:23:02;;;;;;;;;;;2.60;99.90;;;;;;5050054;28;20597;-61
2023/01/25 02:25:28;;;;;;;;;;;2.50;99.90;;;;;;5048129;28;19917;-61
2023/01/25 02:27:55;;;;;;;;;;;2.60;99.90;;;;;;5051072;28;20385;-61
2023/01/25 02:30:21;;;;;;;;;;;2.50;99.90;;;;;;5049072;28;19916;-60
2023/01/25 02:32:46;;;;;;;;;;;2.50;99.90;;;;;;5052451;28;19916;-62
2023/01/25 02:35:22;;;;;;;;;;;2.50;99.90;;;;;;5050452;28;19912;-62
2023/01/25 02:37:49;;;;;;;;;;;2.50;99.90;;;;;;5050152;28;19919;-59
2023/01/25 02:40:15;;;;;;;;;;;2.40;99.90;;;;;;5051471;28;19995;-60
2023/01/25 02:42:42;;;;;;;;;;;2.40;99.90;;;;;;5048071;28;19923;-60
2023/01/25 02:45:10;;;;;;;;;;;2.40;99.90;;;;;;5043278;28;20298;-61
2023/01/25 02:47:35;;;;;;;;;;;2.40;99.90;;;;;;5050373;28;19927;-61
2023/01/25 02:50:01;;;;;;;;;;;2.30;99.90;;;;;;5049278;28;19995;-62
2023/01/25 02:52:27;;;;;;;;;;;2.40;99.90;;;;;;5049166;28;20355;-62
2023/01/25 02:54:52;;;;;;;;;;;2.40;99.90;;;;;;5050113;28;19920;-61
2023/01/25 02:57:17;;;;;;;;;;;2.40;99.90;;;;;;5048917;28;20450;-59
2023/01/25 02:59:43;;;;;;;;;;;2.40;99.90;;;;;;5050630;28;20410;-61
2023/01/25 03:02:08;;;;;;;;;;;2.50;99.90;;;;;;5050827;28;20389;-61
2023/01/25 03:04:34;;;;;;;;;;;2.50;99.90;;;;;;5051073;28;20303;-62
2023/01/25 03:06:59;;;;;;;;;;;2.50;99.90;;;;;;5049774;28;19999;-62
2023/01/25 03:09:25;;;;;;;;;;;2.40;99.90;;;;;;5049643;28;19913;-62
2023/01/25 03:11:50;;;;;;;;;;;2.50;99.90;;;;;;5049369;28;19924;-61
2023/01/25 03:14:15;;;;;;;;;;;2.60;99.90;;;;;;5050594;28;20466;-61
2023/01/25 03:16:41;;;;;;;;;;;2.60;99.90;;;;;;5048104;28;20378;-58
2023/01/25 03:19:06;;;;;;;;;;;2.60;99.90;;;;;;5035021;28;20375;-59
2023/01/25 03:21:32;;;;;;;;;;;2.50;99.90;;;;;;5049541;28;19944;-65
2023/01/25 03:23:59;;;;;;;;;;;2.50;99.90;;;;;;5049521;28;20291;-62
2023/01/25 03:26:26;;;;;;;;;;;2.50;99.90;;;;;;5040573;28;20397;-62
2023/01/25 03:28:52;;;;;;;;;;;2.40;99.90;;;;;;5049009;28;20019;-57
2023/01/25 03:31:18;;;;;;;;;;;2.40;99.90;;;;;;5048999;28;20043;-63
2023/01/25 03:33:43;;;;;;;;;;;2.50;99.90;;;;;;5048010;28;19974;-59
2023/01/25 03:36:09;;;;;;;;;;;2.50;99.90;;;;;;5041426;28;19913;-62
2023/01/25 03:38:34;;;;;;;;;;;2.50;99.90;;;;;;5047928;28;19992;-61
2023/01/25 03:41:00;;;;;;;;;;;2.50;99.90;;;;;;5049987;28;19923;-61
2023/01/25 03:43:26;;;;;;;;;;;2.50;99.90;;;;;;5050563;28;20012;-61
2023/01/25 03:45:59;;;;;;;;;;;2.60;99.90;;;;;;5047711;28;20027;-60
2023/01/25 03:48:24;;;;;;;;;;;2.70;99.90;;;;;;5048747;28;19916;-62
2023/01/25 03:50:51;;;;;;;;;;;2.70;99.90;;;;;;5046130;28;19979;-60
2023/01/25 03:53:26;;;;;;;;;;;2.70;99.90;;;;;;5032963;28;20264;-61
2023/01/25 03:55:52;;;;;;;;;;;2.70;99.90;;;;;;5046117;28;19912;-59
2023/01/25 03:58:18;;;;;;;;;;;2.70;99.90;;;;;;5046664;28;20349;-62
2023/01/25 04:00:43;;;;;;;;;;;2.70;99.90;;;;;;5029922;28;19999;-61
2023/01/25 04:03:09;;;;;;;;;;;2.70;99.90;;;;;;5051686;28;19919;-61
2023/01/25 04:05:34;;;;;;;;;;;2.70;99.90;;;;;;5047100;28;19917;-62
2023/01/25 04:08:00;;;;;;;;;;;2.70;99.90;;;;;;5047722;28;20545;-61
2023/01/25 04:10:25;;;;;;;;;;;2.70;99.90;;;;;;5049984;28;19912;-62
2023/01/25 04:12:50;;;;;;;;;;;2.60;99.90;;;;;;5049496;28;19917;-59
2023/01/25 04:15:16;;;;;;;;;;;2.60;99.90;;;;;;5047372;28;19917;-61
2023/01/25 04:17:41;;;;;;;;;;;2.40;99.90;;;;;;5046755;28;20449;-62
2023/01/25 04:20:07;;;;;;;;;;;2.30;99.90;;;;;;5045138;28;20394;-62
2023/01/25 04:22:32;;;;;;;;;;;2.40;99.90;;;;;;5050144;28;20302;-61
2023/01/25 04:24:58;;;;;;;;;;;2.30;99.90;;;;;;5048822;28;19916;-62
2023/01/25 04:27:23;;;;;;;;;;;2.40;99.90;;;;;;5048635;28;20409;-62
2023/01/25 04:29:49;;;;;;;;;;;2.40;99.90;;;;;;5047352;28;19919;-61
2023/01/25 04:32:14;;;;;;;;;;;2.40;99.90;;;;;;5046367;28;19913;-61
2023/01/25 04:34:40;;;;;;;;;;;2.30;99.90;;;;;;5045525;28;19971;-59
2023/01/25 04:37:05;;;;;;;;;;;2.30;99.90;;;;;;5048087;28;19920;-62
2023/01/25 04:39:30;;;;;;;;;;;2.30;99.90;;;;;;5046667;28;19921;-62
2023/01/25 04:41:56;;;;;;;;;;;2.30;99.90;;;;;;5047831;28;19919;-62
2023/01/25 04:44:21;;;;;;;;;;;2.30;99.90;;;;;;5048280;28;19955;-62
2023/01/25 04:46:48;;;;;;;;;;;2.20;99.90;;;;;;5047121;28;19966;-61
2023/01/25 04:49:13;;;;;;;;;;;2.30;99.90;;;;;;5049427;28;19913;-59
2023/01/25 04:51:40;;;;;;;;;;;2.30;99.90;;;;;;5046480;28;20004;-61
2023/01/25 04:54:05;;;;;;;;;;;2.30;99.90;;;;;;5046979;28;19932;-61
2023/01/25 04:56:30;;;;;;;;;;;2.30;99.90;;;;;;5048690;28;19995;-61
2023/01/25 04:58:56;;;;;;;;;;;2.30;99.90;;;;;;5048643;28;19912;-62
2023/01/25 05:01:21;;;;;;;;;;;2.40;99.90;;;;;;5047015;28;19919;-62
2023/01/25 05:03:47;;;;;;;;;;;2.20;99.90;;;;;;5046988;28;20413;-62
2023/01/25 05:06:12;;;;;;;;;;;2.40;99.90;;;;;;5047382;28;20397;-62
2023/01/25 05:08:38;;;;;;;;;;;2.40;99.90;;;;;;5048249;28;19912;-61
2023/01/25 05:11:03;;;;;;;;;;;2.30;99.90;;;;;;5046295;28;19913;-62
2023/01/25 05:13:29;;;;;;;;;;;2.40;99.90;;;;;;5049150;28;19960;-60
2023/01/25 05:15:55;;;;;;;;;;;2.40;99.90;;;;;;5049704;28;19932;-59
2023/01/25 05:18:20;;;;;;;;;;;2.40;99.90;;;;;;5049153;28;19913;-61
2023/01/25 05:20:46;;;;;;;;;;;2.30;99.90;;;;;;5049453;28;19913;-62
2023/01/25 05:23:11;;;;;;;;;;;2.30;99.90;;;;;;5048759;28;19912;-62
2023/01/25 05:28:21;;;;;;;;;;;2.20;99.90;;;;;;5047012;28;19923;-60
2023/01/25 05:30:46;;;;;;;;;;;2.20;99.90;;;;;;5045471;28;20298;-61
2023/01/25 05:33:11;;;;;;;;;;;2.20;99.90;;;;;;5045705;28;19917;-62
2023/01/25 05:35:37;;;;;;;;;;;2.30;99.90;;;;;;5046184;28;20302;-62
2023/01/25 05:38:02;;;;;;;;;;;2.20;99.90;;;;;;5046566;28;20291;-61
2023/01/25 05:40:28;;;;;;;;;;;2.20;99.90;;;;;;5050581;28;19988;-60
2023/01/25 05:42:54;;;;;;;;;;;2.10;99.90;;;;;;5048828;28;19913;-60
2023/01/25 05:45:20;;;;;;;;;;;2.10;99.90;;;;;;5048488;28;20004;-60
2023/01/25 05:47:45;;;;;;;;;;;2.10;99.90;;;;;;5050373;28;20004;-62
2023/01/25 05:50:11;;;;;;;;;;;2.10;99.90;;;;;;5051383;28;19938;-61
2023/01/25 05:52:36;;;;;;;;;;;2.10;99.90;;;;;;5053207;28;19913;-62
2023/01/25 05:55:02;;;;;;;;;;;2.00;99.90;;;;;;5041820;28;19928;-63
2023/01/25 05:57:27;;;;;;;;;;;2.00;99.90;;;;;;5046840;28;19915;-59
2023/01/25 05:59:53;;;;;;;;;;;2.10;99.90;;;;;;5047643;28;20011;-61
2023/01/25 06:02:18;;;;;;;;;;;2.00;99.90;;;;;;5045291;28;19937;-59
2023/01/25 06:04:44;;;;;;;;;;;2.00;99.90;;;;;;5046693;28;19925;-62
2023/01/25 06:07:09;;;;;;;;;;;2.00;99.90;;;;;;5050008;28;19956;-60
2023/01/25 06:09:35;;;;;;;;;;;1.90;99.90;;;;;;5032520;28;19917;-64
2023/01/25 06:12:00;;;;;;;;;;;2.00;99.90;;;;;;5048916;28;19917;-59
2023/01/25 06:14:26;;;;;;;;;;;2.00;99.90;;;;;;5051633;28;19913;-61
2023/01/25 06:16:51;;;;;;;;;;;2.00;99.90;;;;;;5046468;28;19917;-61
2023/01/25 06:19:16;;;;;;;;;;;2.10;99.90;;;;;;5051438;28;19944;-59
2023/01/25 06:21:42;;;;;;;;;;;2.20;99.90;;;;;;5050366;28;19970;-61
2023/01/25 06:24:07;;;;;;;;;;;2.20;99.90;;;;;;5033952;28;20047;-63
2023/01/25 06:26:33;;;;;;;;;;;2.10;99.90;;;;;;5049830;28;19916;-63
2023/01/25 06:28:58;;;;;;;;;;;2.10;99.90;;;;;;5052544;28;20366;-63
2023/01/25 06:31:24;;;;;;;;;;;2.10;99.90;;;;;;5052482;28;19996;-61
2023/01/25 06:33:50;;;;;;;;;;;2.00;99.90;;;;;;5052609;28;19956;-63
2023/01/25 06:36:17;;;;;;;;;;;2.10;99.90;;;;;;5052342;28;19909;-63
2023/01/25 06:38:42;;;;;;;;;;;2.10;99.90;;;;;;5051916;28;19920;-64
2023/01/25 06:41:10;;;;;;;;;;;2.10;99.90;;;;;;5052847;28;19908;-63
2023/01/25 06:43:36;;;;;;;;;;;2.20;99.90;;;;;;5055712;28;19962;-61
2023/01/25 06:46:05;;;;;;;;;;;2.30;99.90;;;;;;5051098;28;19925;-60
2023/01/25 06:48:31;;;;;;;;;;;2.40;99.90;;;;;;5051459;28;20364;-61
2023/01/25 06:50:58;;;;;;;;;;;2.50;99.90;;;;;;5050976;28;19924;-61
2023/01/25 06:53:24;;;;;;;;;;;2.50;99.90;;;;;;5053625;28;20007;-62
2023/01/25 06:55:55;;;;;;;;;;;2.50;99.90;;;;;;5051217;28;20000;-62
2023/01/25 06:58:20;;;;;;;;;;;2.40;99.90;;;;;;5051161;28;20047;-62
2023/01/25 07:00:46;;;;;;;;;;;2.20;99.90;;;;;;5056876;28;20023;-61
2023/01/25 07:03:11;;;;;;;;;;;2.20;99.90;;;;;;5046731;28;20013;-62
2023/01/25 07:05:36;;;;;;;;;;;2.20;99.90;;;;;;5051598;28;19931;-61
2023/01/25 07:08:02;;;;;;;;;;;2.30;99.90;;;;;;5051661;28;20618;-61
2023/01/25 07:10:27;;;;;;;;;;;2.30;99.90;;;;;;5052229;28;20268;-62
2023/01/25 07:12:53;;;;;;;;;;;2.30;99.90;;;;;;5050461;28;19913;-62
2023/01/25 07:15:18;;;;;;;;;;;2.40;99.90;;;;;;5048068;28;20384;-62
2023/01/25 07:17:44;;;;;;;;;;;2.30;99.90;;;;;;5049993;28;19916;-61
2023/01/25 07:20:09;;;;;;;;;;;2.30;99.90;;;;;;5053658;28;19913;-62
2023/01/25 07:22:35;;;;;;;;;;;2.20;99.90;;;;;;5032012;28;19917;-63
2023/01/25 07:25:01;;;;;;;;;;;2.10;99.90;;;;;;5032107;28;20062;-62
2023/01/25 07:27:26;;;;;;;;;;;2.20;99.90;;;;;;5029627;28;20335;-62
2023/01/25 07:29:51;;;;;;;;;;;2.30;99.90;;;;;;5048118;28;20020;-64
2023/01/25 07:32:17;;;;;;;;;;;2.30;99.90;;;;;;5047819;28;20463;-63
2023/01/25 07:34:42;;;;;;;;;;;2.30;99.90;;;;;;5047179;28;19956;-62
2023/01/25 07:37:08;;;;;;;;;;;2.40;99.90;;;;;;5050403;28;19913;-61
2023/01/25 07:39:34;;;;;;;;;;;2.40;99.90;;;;;;5049882;28;19913;-61
2023/01/25 07:42:00;;;;;;;;;;;2.40;99.90;;;;;;5049453;28;19916;-61
2023/01/25 07:44:25;;;;;;;;;;;2.30;99.90;;;;;;5047258;28;20026;-60
2023/01/25 07:46:52;;;;;;;;;;;2.20;99.90;;;;;;5046727;28;20299;-60
2023/01/25 07:49:17;;;;;;;;;;;2.20;99.90;;;;;;5050740;28;19920;-62
2023/01/25 07:51:43;;;;;;;;;;;2.10;99.90;;;;;;5049144;28;19916;-61
2023/01/25 07:54:09;;;;;;;;;;;2.20;99.90;;;;;;5050483;28;19919;-61
2023/01/25 07:56:37;;;;;;;;;;;2.20;99.90;;;;;;5046665;28;19920;-62
2023/01/25 07:59:02;;;;;;;;;;;2.10;99.90;;;;;;5048610;28;19917;-62
2023/01/25 08:01:29;;;;;;;;;;;2.10;99.90;;;;;;5049670;28;19908;-61
2023/01/25 08:03:55;;;;;;;;;;;2.00;99.90;;;;;;5047223;28;19913;-60
2023/01/25 08:06:26;;;;;;;;;;;2.00;99.90;;;;;;5048613;28;20344;-62
2023/01/25 08:08:52;;;;;;;;;;;2.00;99.90;;;;;;5049831;28;20399;-62
2023/01/25 08:11:28;;;;;;;;;;;2.00;99.90;;;;;;5045952;28;20012;-61
2023/01/25 08:13:54;;;;;;;;;;;1.90;99.90;;;;;;5047069;28;20392;-61
2023/01/25 08:16:21;;;;;;;;;;;2.00;99.90;;;;;;5042718;28;20002;-62
2023/01/25 08:18:47;;;;;;;;;;;2.00;99.90;;;;;;5047293;28;19913;-62
2023/01/25 08:21:12;;;;;;;;;;;2.00;99.90;;;;;;5046638;28;19916;-61
2023/01/25 08:23:38;;;;;;;;;;;2.00;99.90;;;;;;5047911;28;19913;-63
2023/01/25 08:26:08;;;;;;;;;;;2.10;99.90;;;;;;5049209;28;19913;-60
2023/01/25 08:28:34;;;;;;;;;;;2.10;99.90;;;;;;5048027;28;20003;-61
2023/01/25 08:31:23;;;;;;;;;;;2.00;99.90;;;;;;5049283;28;20389;-60
2023/01/25 08:33:48;;;;;;;;;;;2.00;99.90;;;;;;5039877;28;20019;-61
2023/01/25 08:36:15;;;;;;;;;;;2.10;99.90;;;;;;5048962;28;20284;-61
2023/01/25 08:38:41;;;;;;;;;;;2.20;99.90;;;;;;5045493;28;19921;-61
2023/01/25 08:41:16;;;;;;;;;;;2.30;99.90;;;;;;5047422;28;19913;-60
2023/01/25 08:43:42;;;;;;;;;;;2.10;99.90;;;;;;5048780;28;19962;-58
2023/01/25 08:46:08;;;;;;;;;;;2.10;99.90;;;;;;5048529;28;19913;-60
2023/01/25 08:48:34;;;;;;;;;;;2.10;99.90;;;;;;5045704;28;20259;-60
2023/01/25 08:51:00;;;;;;;;;;;2.10;99.90;;;;;;5048587;28;20322;-60
2023/01/25 08:53:30;;;;;;;;;;;2.20;99.90;;;;;;5049851;28;19948;-60
2023/01/25 08:55:55;;;;;;;;;;;2.30;99.90;;;;;;5046642;28;19913;-61
2023/01/25 08:58:21;;;;;;;;;;;2.20;99.90;;;;;;5048612;28;20358;-61
2023/01/25 09:00:47;;;;;;;;;;;2.30;99.90;;;;;;5046499;28;19962;-60
2023/01/25 09:03:13;;;;;;;;;;;2.30;99.90;;;;;;5040568;28;19994;-61
2023/01/25 09:05:39;;;;;;;;;;;2.40;99.90;;;;;;5044472;28;20371;-60
2023/01/25 09:08:05;;;;;;;;;;;2.30;99.90;;;;;;5043156;28;19959;-60
2023/01/25 09:10:31;;;;;;;;;;;2.30;99.90;;;;;;5040999;28;21168;-59
2023/01/25 09:12:57;;;;;;;;;;;2.40;99.90;;;;;;5043610;28;20008;-59
2023/01/25 09:15:23;;;;;;;;;;;2.40;99.90;;;;;;5041633;28;19924;-60
2023/01/25 09:17:52;;;;;;;;;;;2.40;99.90;;;;;;5043933;28;20424;-61
2023/01/25 09:20:17;;;;;;;;;;;2.50;99.90;;;;;;5040778;28;19916;-61
2023/01/25 09:22:43;;;;;;;;;;;2.40;99.90;;;;;;5047411;28;19913;-61
2023/01/25 09:25:08;;;;;;;;;;;2.40;99.90;;;;;;5052296;28;20004;-61
2023/01/25 09:27:34;;;;;;;;;;;2.40;99.90;;;;;;5048922;28;19913;-61
2023/01/25 09:29:59;;;;;;;;;;;2.40;99.90;;;;;;5051539;28;19920;-60
2023/01/25 09:32:25;;;;;;;;;;;2.40;99.90;;;;;;5051883;28;19912;-59
2023/01/25 09:34:50;;;;;;;;;;;2.30;99.90;;;;;;5050092;28;19913;-60
2023/01/25 09:37:16;;;;;;;;;;;2.30;99.90;;;;;;5051484;28;19917;-60
2023/01/25 09:39:41;;;;;;;;;;;2.30;99.90;;;;;;5050129;28;19916;-61
2023/01/25 09:42:09;;;;;;;;;;;2.30;99.90;;;;;;5052556;28;19909;-61
2023/01/25 09:44:53;;;;;;;;;;;2.20;99.90;;;;;;5048471;28;20046;-62
2023/01/25 09:47:31;;;;;;;;;;;2.30;99.90;;;;;;5050991;28;20001;-60
2023/01/25 09:49:59;;;;;;;;;;;2.20;99.90;;;;;;5046602;28;19916;-61
2023/01/25 09:52:34;;;;;;;;;;;2.10;99.90;;;;;;5048131;28;20007;-61
2023/01/25 09:55:00;;;;;;;;;;;2.00;99.90;;;;;;5049017;28;19967;-60
2023/01/25 09:57:33;;;;;;;;;;;2.00;99.90;;;;;;5049197;28;20321;-59
2023/01/25 10:00:02;;;;;;;;;;;2.10;99.90;;;;;;5049258;28;19917;-61
2023/01/25 10:02:45;;;;;;;;;;;2.10;99.90;;;;;;5044188;28;20355;-60
2023/01/25 10:05:13;;;;;;;;;;;2.20;99.90;;;;;;5048497;28;20750;-61
2023/01/25 10:07:57;;;;;;;;;;;2.20;99.90;;;;;;5048655;28;20385;-61
2023/01/25 10:10:33;;;;;;;;;;;2.30;99.90;;;;;;5044475;28;20014;-60
2023/01/25 10:12:59;;;;;;;;;;;2.40;99.90;;;;;;5049313;28;20004;-60
2023/01/25 10:15:31;;;;;;;;;;;2.30;99.90;;;;;;5046077;28;20063;-60
2023/01/25 10:18:00;;;;;;;;;;;2.30;99.90;;;;;;5045982;28;19913;-61
2023/01/25 10:20:32;;;;;;;;;;;2.30;99.90;;;;;;5047150;28;20302;-61
2023/01/25 10:23:16;;;;;;;;;;;2.20;99.90;;;;;;5048316;28;19919;-61
2023/01/25 10:25:45;;;;;;;;;;;2.20;99.90;;;;;;5046337;28;19925;-61
2023/01/25 10:28:24;;;;;;;;;;;2.20;99.90;;;;;;5048313;28;19920;-61
2023/01/25 10:31:00;;;;;;;;;;;2.20;99.90;;;;;;5044317;28;19913;-61
2023/01/25 10:33:28;;;;;;;;;;;2.20;99.90;;;;;;5045183;28;20035;-57
2023/01/25 10:35:54;;;;;;;;;;;2.10;99.90;;;;;;5049686;28;19921;-62
2023/01/25 10:38:25;;;;;;;;;;;2.10;99.90;;;;;;5041143;28;20397;-60
2023/01/25 10:40:55;;;;;;;;;;;2.20;99.90;;;;;;5048957;28;19924;-60
2023/01/25 10:43:20;;;;;;;;;;;2.20;99.90;;;;;;5047229;28;19912;-61
2023/01/25 10:45:47;;;;;;;;;;;2.20;99.90;;;;;;5046846;28;19924;-60
2023/01/25 10:48:16;;;;;;;;;;;2.20;99.90;;;;;;5050507;28;19913;-59
2023/01/25 10:50:46;;;;;;;;;;;2.20;99.90;;;;;;5043419;28;20007;-59
2023/01/25 10:53:20;;;;;;;;;;;2.20;99.90;;;;;;5046473;28;19940;-60
2023/01/25 10:55:59;;;;;;;;;;;2.20;99.90;;;;;;5050921;28;19913;-60
2023/01/25 10:58:32;;;;;;;;;;;2.20;99.90;;;;;;5045322;28;19924;-61
2023/01/25 11:00:58;;;;;;;;;;;2.20;99.90;;;;;;5046577;28;19916;-61
2023/01/25 11:03:32;;;;;;;;;;;2.30;99.90;;;;;;5047213;28;19939;-61
2023/01/25 11:05:58;;;;;;;;;;;2.40;99.90;;;;;;5048045;28;19917;-60
2023/01/25 11:08:25;;;;;;;;;;;2.30;99.90;;;;;;5049608;28;20279;-57
2023/01/25 11:10:52;;;;;;;;;;;2.30;99.90;;;;;;5047952;28;19919;-60
2023/01/25 11:13:19;;;;;;;;;;;2.20;99.90;;;;;;5049912;28;19917;-61
2023/01/25 11:16:00;;;;;;;;;;;2.20;99.90;;;;;;5046270;28;20333;-60
2023/01/25 11:18:33;;;;;;;;;;;2.10;99.90;;;;;;5047749;28;19913;-61
2023/01/25 11:21:02;;;;;;;;;;;2.10;99.90;;;;;;5047317;28;20326;-60
2023/01/25 11:23:27;;;;;;;;;;;2.10;99.90;;;;;;5050823;28;19928;-60
2023/01/25 11:25:52;;;;;;;;;;;2.10;99.90;;;;;;5044427;28;20333;-60
2023/01/25 11:28:24;;;;;;;;;;;2.10;99.90;;;;;;5047642;28;19971;-60
2023/01/25 11:30:50;;;;;;;;;;;2.20;99.90;;;;;;5041152;28;20527;-62
2023/01/25 11:33:17;;;;;;;;;;;2.30;99.90;;;;;;5048585;28;20373;-60
2023/01/25 11:35:52;;;;;;;;;;;2.40;99.90;;;;;;5029083;28;19912;-61
2023/01/25 11:38:20;;;;;;;;;;;2.30;99.90;;;;;;5048659;28;19913;-61
2023/01/25 11:40:58;;;;;;;;;;;2.20;99.90;;;;;;5045725;28;20409;-61
2023/01/25 11:43:24;;;;;;;;;;;2.20;99.90;;;;;;5043012;28;19928;-61
2023/01/25 11:46:05;;;;;;;;;;;2.10;99.90;;;;;;5046966;28;19917;-61
2023/01/25 11:48:30;;;;;;;;;;;2.00;99.90;;;;;;5045679;28;19921;-62
2023/01/25 11:51:02;;;;;;;;;;;2.00;99.90;;;;;;5046944;28;19917;-64
2023/01/25 11:53:42;;;;;;;;;;;2.00;99.90;;;;;;5049213;28;19920;-61
2023/01/25 11:56:19;;;;;;;;;;;1.90;99.90;;;;;;5048029;28;20405;-61
2023/01/25 11:59:03;;;;;;;;;;;1.90;99.90;;;;;;5047456;28;19913;-61
2023/01/25 12:01:54;;;;;;;;;;;1.80;99.90;;;;;;5041673;28;19958;-61
2023/01/25 12:04:23;;;;;;;;;;;1.70;99.90;;;;;;5046896;28;19920;-61
2023/01/25 12:07:02;;;;;;;;;;;1.90;99.90;;;;;;5045625;28;19921;-60
2023/01/25 12:09:37;;;;;;;;;;;1.80;99.90;;;;;;5049923;28;19996;-61
2023/01/25 12:12:10;;;;;;;;;;;1.80;99.90;;;;;;5048059;28;19921;-60
2023/01/25 12:14:48;;;;;;;;;;;1.80;99.90;;;;;;5047218;28;19921;-61
2023/01/25 12:17:23;;;;;;;;;;;1.90;99.90;;;;;;5042785;28;20421;-61
2023/01/25 12:19:49;;;;;;;;;;;1.90;99.90;;;;;;5048036;28;20015;-61
2023/01/25 12:22:22;;;;;;;;;;;1.90;99.90;;;;;;5050348;28;20345;-61
2023/01/25 12:25:02;;;;;;;;;;;1.80;99.90;;;;;;5046301;28;19920;-60
2023/01/25 12:27:39;;;;;;;;;;;1.90;99.90;;;;;;5043135;28;19974;-60
2023/01/25 12:30:25;;;;;;;;;;;2.00;99.90;;;;;;5025606;28;20451;-62
2023/01/25 12:32:58;;;;;;;;;;;2.10;99.90;;;;;;5045529;28;19997;-61
2023/01/25 12:35:36;;;;;;;;;;;2.20;99.90;;;;;;5045050;28;19913;-60
2023/01/25 12:38:03;;;;;;;;;;;2.20;99.90;;;;;;5042925;28;19917;-60
2023/01/25 12:40:41;;;;;;;;;;;2.30;99.90;;;;;;5046365;28;19921;-60
2023/01/25 12:43:13;;;;;;;;;;;2.30;99.90;;;;;;5047757;28;19928;-61
2023/01/25 12:45:40;;;;;;;;;;;2.30;99.90;;;;;;5049579;28;19983;-59
2023/01/25 12:48:20;;;;;;;;;;;2.40;99.90;;;;;;5047537;28;19920;-62
2023/01/25 12:50:50;;;;;;;;;;;2.40;99.90;;;;;;5044304;28;19917;-62
2023/01/25 12:53:31;;;;;;;;;;;2.40;99.90;;;;;;5049223;28;19912;-60
2023/01/25 12:55:57;;;;;;;;;;;2.40;99.90;;;;;;5047672;28;19921;-61
2023/01/25 12:58:25;;;;;;;;;;;2.30;99.90;;;;;;5051720;28;19974;-62
2023/01/25 13:00:57;;;;;;;;;;;2.30;99.90;;;;;;5051972;28;19924;-61
2023/01/25 13:03:30;;;;;;;;;;;2.30;99.90;;;;;;5051375;28;19913;-61
2023/01/25 13:06:15;;;;;;;;;;;2.30;99.90;;;;;;5048837;28;19939;-61
2023/01/25 13:09:03;;;;;;;;;;;2.20;99.90;;;;;;5052266;28;20287;-61
2023/01/25 13:11:32;;;;;;;;;;;2.20;99.90;;;;;;5043813;28;19912;-61
2023/01/25 13:14:16;;;;;;;;;;;2.20;99.90;;;;;;5051516;28;19949;-61
2023/01/25 13:16:43;;;;;;;;;;;2.00;99.90;;;;;;5049586;28;19947;-61
2023/01/25 13:19:17;;;;;;;;;;;2.00;99.90;;;;;;5049437;28;19923;-60
2023/01/25 13:21:44;;;;;;;;;;;2.10;99.90;;;;;;5047839;28;19920;-62
2023/01/25 13:24:12;;;;;;;;;;;2.10;99.90;;;;;;5047225;28;20371;-61
2023/01/25 13:26:45;;;;;;;;;;;2.10;99.90;;;;;;5044197;28;19936;-61
2023/01/25 13:29:29;;;;;;;;;;;2.10;99.90;;;;;;5049128;28;20436;-60
2023/01/25 13:31:55;;;;;;;;;;;2.00;99.90;;;;;;5047920;28;19921;-61
2023/01/25 13:34:36;;;;;;;;;;;2.00;99.90;;;;;;5040264;28;19979;-61
2023/01/25 13:37:02;;;;;;;;;;;2.10;99.90;;;;;;5047130;28;19923;-61
2023/01/25 13:39:30;;;;;;;;;;;2.20;99.90;;;;;;5048030;28;19913;-60
2023/01/25 13:42:08;;;;;;;;;;;2.20;99.90;;;;;;5049746;28;20437;-61
2023/01/25 13:44:34;;;;;;;;;;;2.10;99.90;;;;;;5048295;28;20005;-61
2023/01/25 13:47:01;;;;;;;;;;;2.20;99.90;;;;;;5046089;28;19967;-61
2023/01/25 13:49:32;;;;;;;;;;;2.10;99.90;;;;;;5046788;28;20000;-61
2023/01/25 13:51:58;;;;;;;;;;;2.10;99.90;;;;;;5052080;28;19917;-61
2023/01/25 13:54:24;;;;;;;;;;;2.20;99.90;;;;;;5049048;28;20000;-60
2023/01/25 13:57:02;;;;;;;;;;;2.30;99.90;;;;;;5049353;28;20554;-61
2023/01/25 13:59:27;;;;;;;;;;;2.40;99.90;;;;;;5049213;28;19913;-58
2023/01/25 14:01:53;;;;;;;;;;;2.30;99.90;;;;;;5048996;28;19912;-59
2023/01/25 14:04:18;;;;;;;;;;;2.40;99.90;;;;;;5047683;28;19923;-60
2023/01/25 14:06:44;;;;;;;;;;;2.30;99.90;;;;;;5052032;28;20569;-60
2023/01/25 14:09:18;;;;;;;;;;;2.20;99.90;;;;;;5051015;28;20413;-61
2023/01/25 14:12:00;;;;;;;;;;;2.10;99.90;;;;;;5052982;28;19915;-60
2023/01/25 14:14:25;;;;;;;;;;;2.10;99.90;;;;;;5049225;28;19923;-61
2023/01/25 14:17:01;;;;;;;;;;;2.10;99.90;;;;;;5051299;28;20310;-60
2023/01/25 14:19:28;;;;;;;;;;;2.20;99.90;;;;;;5049899;28;19917;-61
2023/01/25 14:22:13;;;;;;;;;;;2.10;99.90;;;;;;5052491;28;19909;-61
2023/01/25 14:24:38;;;;;;;;;;;2.00;99.90;;;;;;5050429;28;20007;-60
2023/01/25 14:27:04;;;;;;;;;;;2.10;99.90;;;;;;5051883;28;20019;-61
2023/01/25 14:29:34;;;;;;;;;;;2.10;99.90;;;;;;5048951;28;19920;-61
2023/01/25 14:31:59;;;;;;;;;;;2.10;99.90;;;;;;5050483;28;19953;-62
2023/01/25 14:34:25;;;;;;;;;;;2.20;99.90;;;;;;5048895;28;20434;-61
2023/01/25 14:37:03;;;;;;;;;;;2.30;99.90;;;;;;5048818;28;19912;-61
2023/01/25 14:39:29;;;;;;;;;;;2.30;99.90;;;;;;5049208;28;19916;-61